sensor_id;sensor_type;location;lat;lon;timestamp;pressure;altitude;pressure_sealevel;temperature;humidity
7614;BME280;3848;42.016;23.098;2024-02-15T00:00:51;97495.91;;;3.59;100.00
7614;BME280;3848;42.016;23.098;2024-02-15T00:03:20;97499.19;;;3.55;100.00
7614;BME280;3848;42.016;23.098;2024-02-15T00:05:47;97500.72;;;3.52;100.00
7614;BME280;3848;42.016;23.098;2024-02-15T00:08:14;97505.72;;;3.50;100.00
7614;BME280;3848;42.016;23.098;2024-02-15T00:10:41;97506.53;;;3.49;100.00
7614;BME280;3848;42.016;23.098;2024-02-15T00:13:10;97507.41;;;3.51;100.00
7614;BME280;3848;42.016;23.098;2024-02-15T00:15:37;97470.81;;;3.28;100.00
7614;BME280;3848;42.016;23.098;2024-02-15T00:18:04;97507.34;;;3.48;100.00
7614;BME280;3848;42.016;23.098;2024-02-15T00:20:34;97522.41;;;3.48;100.00
7614;BME280;3848;42.016;23.098;2024-02-15T00:23:01;97496.25;;;3.40;100.00
7614;BME280;3848;42.016;23.098;2024-02-15T00:25:28;97507.19;;;3.42;100.00
7614;BME280;3848;42.016;23.098;2024-02-15T00:27:56;97517.25;;;3.42;100.00
7614;BME280;3848;42.016;23.098;2024-02-15T00:30:23;97515.41;;;3.35;100.00
7614;BME280;3848;42.016;23.098;2024-02-15T00:32:50;97518.53;;;3.28;100.00
7614;BME280;3848;42.016;23.098;2024-02-15T00:35:17;97507.47;;;3.21;100.00
7614;BME280;3848;42.016;23.098;2024-02-15T00:37:45;97511.56;;;3.18;100.00
7614;BME280;3848;42.016;23.098;2024-02-15T00:40:12;97509.63;;;3.08;100.00
7614;BME280;3848;42.016;23.098;2024-02-15T00:42:40;97508.69;;;3.04;100.00
7614;BME280;3848;42.016;23.098;2024-02-15T00:45:07;97516.13;;;3.01;100.00
7614;BME280;3848;42.016;23.098;2024-02-15T00:47:34;97507.41;;;2.88;100.00
7614;BME280;3848;42.016;23.098;2024-02-15T00:50:03;97523.28;;;2.87;100.00
7614;BME280;3848;42.016;23.098;2024-02-15T00:52:30;97521.56;;;2.86;100.00
7614;BME280;3848;42.016;23.098;2024-02-15T00:54:58;97520.59;;;2.81;100.00
7614;BME280;3848;42.016;23.098;2024-02-15T00:57:25;97524.84;;;2.84;100.00
7614;BME280;3848;42.016;23.098;2024-02-15T00:59:52;97514.66;;;2.78;100.00
7614;BME280;3848;42.016;23.098;2024-02-15T01:02:19;97517.03;;;2.73;100.00
7614;BME280;3848;42.016;23.098;2024-02-15T01:04:47;97505.13;;;2.67;100.00
7614;BME280;3848;42.016;23.098;2024-02-15T01:07:14;97521.44;;;2.82;100.00
7614;BME280;3848;42.016;23.098;2024-02-15T01:09:41;97526.59;;;2.86;100.00
7614;BME280;3848;42.016;23.098;2024-02-15T01:12:10;97517.22;;;2.81;100.00
7614;BME280;3848;42.016;23.098;2024-02-15T01:14:37;97516.50;;;2.85;100.00
7614;BME280;3848;42.016;23.098;2024-02-15T01:17:04;97519.94;;;2.88;100.00
7614;BME280;3848;42.016;23.098;2024-02-15T01:19:31;97526.53;;;2.85;100.00
7614;BME280;3848;42.016;23.098;2024-02-15T01:21:58;97523.88;;;2.79;100.00
7614;BME280;3848;42.016;23.098;2024-02-15T01:24:25;97521.84;;;2.67;100.00
7614;BME280;3848;42.016;23.098;2024-02-15T01:26:52;97525.97;;;2.65;100.00
7614;BME280;3848;42.016;23.098;2024-02-15T01:29:21;97518.38;;;2.62;100.00
7614;BME280;3848;42.016;23.098;2024-02-15T01:31:48;97513.19;;;2.56;100.00
7614;BME280;3848;42.016;23.098;2024-02-15T01:34:15;97519.97;;;2.60;100.00
7614;BME280;3848;42.016;23.098;2024-02-15T01:36:41;97527.50;;;2.60;100.00
7614;BME280;3848;42.016;23.098;2024-02-15T01:39:08;97524.03;;;2.55;100.00
7614;BME280;3848;42.016;23.098;2024-02-15T01:41:35;97523.97;;;2.53;100.00
7614;BME280;3848;42.016;23.098;2024-02-15T01:44:03;97488.19;;;2.30;100.00
7614;BME280;3848;42.016;23.098;2024-02-15T01:46:33;97530.44;;;2.47;100.00
7614;BME280;3848;42.016;23.098;2024-02-15T01:49:00;97532.94;;;2.47;100.00
7614;BME280;3848;42.016;23.098;2024-02-15T01:51:27;97521.13;;;2.42;100.00
7614;BME280;3848;42.016;23.098;2024-02-15T01:53:55;97532.69;;;2.37;100.00
7614;BME280;3848;42.016;23.098;2024-02-15T01:56:23;97531.03;;;2.38;100.00
7614;BME280;3848;42.016;23.098;2024-02-15T01:58:52;97529.28;;;2.35;100.00
7614;BME280;3848;42.016;23.098;2024-02-15T02:01:20;97529.19;;;2.32;100.00
7614;BME280;3848;42.016;23.098;2024-02-15T02:03:49;97531.72;;;2.32;100.00
7614;BME280;3848;42.016;23.098;2024-02-15T02:06:16;97531.75;;;2.34;100.00
7614;BME280;3848;42.016;23.098;2024-02-15T02:08:43;97535.97;;;2.35;100.00
7614;BME280;3848;42.016;23.098;2024-02-15T02:11:10;97535.06;;;2.33;100.00
7614;BME280;3848;42.016;23.098;2024-02-15T02:13:38;97544.25;;;2.32;100.00
7614;BME280;3848;42.016;23.098;2024-02-15T02:16:24;97535.91;;;2.33;100.00
7614;BME280;3848;42.016;23.098;2024-02-15T02:18:54;97536.81;;;2.35;100.00
7614;BME280;3848;42.016;23.098;2024-02-15T02:21:21;97532.66;;;2.36;100.00
7614;BME280;3848;42.016;23.098;2024-02-15T02:23:52;97534.97;;;2.30;100.00
7614;BME280;3848;42.016;23.098;2024-02-15T02:26:21;97525.59;;;2.24;100.00
7614;BME280;3848;42.016;23.098;2024-02-15T02:28:49;97540.84;;;2.30;100.00
7614;BME280;3848;42.016;23.098;2024-02-15T02:31:18;97539.22;;;2.32;100.00
7614;BME280;3848;42.016;23.098;2024-02-15T02:33:50;97544.25;;;2.32;100.00
7614;BME280;3848;42.016;23.098;2024-02-15T02:36:18;97542.53;;;2.31;100.00
7614;BME280;3848;42.016;23.098;2024-02-15T02:38:46;97541.78;;;2.34;100.00
7614;BME280;3848;42.016;23.098;2024-02-15T02:41:15;97546.66;;;2.29;100.00
7614;BME280;3848;42.016;23.098;2024-02-15T02:43:44;97544.88;;;2.27;100.00
7614;BME280;3848;42.016;23.098;2024-02-15T02:46:11;97543.84;;;2.20;100.00
7614;BME280;3848;42.016;23.098;2024-02-15T02:48:38;97545.56;;;2.21;100.00
7614;BME280;3848;42.016;23.098;2024-02-15T02:51:06;97547.16;;;2.19;100.00
7614;BME280;3848;42.016;23.098;2024-02-15T02:53:33;97544.59;;;2.18;100.00
7614;BME280;3848;42.016;23.098;2024-02-15T02:56:01;97547.06;;;2.16;100.00
7614;BME280;3848;42.016;23.098;2024-02-15T02:58:29;97539.50;;;2.14;100.00
7614;BME280;3848;42.016;23.098;2024-02-15T03:00:58;97542.09;;;2.18;100.00
7614;BME280;3848;42.016;23.098;2024-02-15T03:03:26;97535.34;;;2.15;100.00
7614;BME280;3848;42.016;23.098;2024-02-15T03:05:53;97537.94;;;2.18;100.00
7614;BME280;3848;42.016;23.098;2024-02-15T03:08:20;97537.72;;;2.10;100.00
7614;BME280;3848;42.016;23.098;2024-02-15T03:10:48;97544.97;;;2.03;100.00
7614;BME280;3848;42.016;23.098;2024-02-15T03:13:15;97552.63;;;2.07;100.00
7614;BME280;3848;42.016;23.098;2024-02-15T03:15:44;97553.47;;;2.08;100.00
7614;BME280;3848;42.016;23.098;2024-02-15T03:18:14;97545.97;;;2.08;100.00
7614;BME280;3848;42.016;23.098;2024-02-15T03:20:41;97550.28;;;2.12;100.00
7614;BME280;3848;42.016;23.098;2024-02-15T03:23:09;97494.91;;;1.77;100.00
7614;BME280;3848;42.016;23.098;2024-02-15T03:25:36;97555.31;;;2.12;100.00
7614;BME280;3848;42.016;23.098;2024-02-15T03:28:04;97553.47;;;2.08;100.00
7614;BME280;3848;42.016;23.098;2024-02-15T03:30:32;97551.19;;;2.14;100.00
7614;BME280;3848;42.016;23.098;2024-02-15T03:32:59;97542.16;;;2.19;100.00
7614;BME280;3848;42.016;23.098;2024-02-15T03:35:28;97544.69;;;2.21;100.00
7614;BME280;3848;42.016;23.098;2024-02-15T03:37:57;97543.84;;;2.20;100.00
7614;BME280;3848;42.016;23.098;2024-02-15T03:40:24;97542.38;;;2.27;100.00
7614;BME280;3848;42.016;23.098;2024-02-15T03:42:52;97549.03;;;2.26;100.00
7614;BME280;3848;42.016;23.098;2024-02-15T03:45:20;97544.75;;;2.22;100.00
7614;BME280;3848;42.016;23.098;2024-02-15T03:47:50;97542.25;;;2.22;100.00
7614;BME280;3848;42.016;23.098;2024-02-15T03:50:18;97552.34;;;2.25;100.00
7614;BME280;3848;42.016;23.098;2024-02-15T03:52:48;97554.78;;;2.22;100.00
7614;BME280;3848;42.016;23.098;2024-02-15T03:55:15;97542.00;;;2.14;100.00
7614;BME280;3848;42.016;23.098;2024-02-15T03:57:42;97563.00;;;2.18;100.00
7614;BME280;3848;42.016;23.098;2024-02-15T04:00:12;97562.97;;;2.17;100.00
7614;BME280;3848;42.016;23.098;2024-02-15T04:02:39;97556.78;;;2.07;100.00
7614;BME280;3848;42.016;23.098;2024-02-15T04:05:07;97562.59;;;2.06;100.00
7614;BME280;3848;42.016;23.098;2024-02-15T04:07:34;97555.00;;;2.03;100.00
7614;BME280;3848;42.016;23.098;2024-02-15T04:10:06;97557.63;;;2.07;100.00
7614;BME280;3848;42.016;23.098;2024-02-15T04:12:33;97553.25;;;2.00;100.00
7614;BME280;3848;42.016;23.098;2024-02-15T04:15:00;97554.91;;;2.00;100.00
7614;BME280;3848;42.016;23.098;2024-02-15T04:17:31;97560.72;;;1.99;100.00
7614;BME280;3848;42.016;23.098;2024-02-15T04:20:00;97564.84;;;1.97;100.00
7614;BME280;3848;42.016;23.098;2024-02-15T04:22:29;97554.63;;;1.91;100.00
7614;BME280;3848;42.016;23.098;2024-02-15T04:24:57;97556.09;;;1.86;100.00
7614;BME280;3848;42.016;23.098;2024-02-15T04:27:26;97497.31;;;1.49;100.00
7614;BME280;3848;42.016;23.098;2024-02-15T04:29:53;97560.22;;;1.83;100.00
7614;BME280;3848;42.016;23.098;2024-02-15T04:32:21;97566.13;;;1.86;100.00
7614;BME280;3848;42.016;23.098;2024-02-15T04:34:48;97565.44;;;1.90;100.00
7614;BME280;3848;42.016;23.098;2024-02-15T04:37:15;97565.44;;;1.90;100.00
7614;BME280;3848;42.016;23.098;2024-02-15T04:39:43;97568.19;;;1.97;100.00
7614;BME280;3848;42.016;23.098;2024-02-15T04:42:12;97569.97;;;2.01;100.00
7614;BME280;3848;42.016;23.098;2024-02-15T04:44:41;97562.47;;;2.01;100.00
7614;BME280;3848;42.016;23.098;2024-02-15T04:47:09;97565.81;;;2.02;100.00
7614;BME280;3848;42.016;23.098;2024-02-15T04:49:36;97573.16;;;1.96;100.00
7614;BME280;3848;42.016;23.098;2024-02-15T04:52:04;97554.41;;;1.84;100.00
7614;BME280;3848;42.016;23.098;2024-02-15T04:54:32;97581.28;;;1.89;100.00
7614;BME280;3848;42.016;23.098;2024-02-15T04:56:59;97569.38;;;1.83;100.00
7614;BME280;3848;42.016;23.098;2024-02-15T04:59:26;97575.03;;;1.77;100.00
7614;BME280;3848;42.016;23.098;2024-02-15T05:01:58;97581.91;;;1.83;100.00
7614;BME280;3848;42.016;23.098;2024-02-15T05:04:25;97586.97;;;1.84;100.00
7614;BME280;3848;42.016;23.098;2024-02-15T05:06:52;97581.16;;;1.86;100.00
7614;BME280;3848;42.016;23.098;2024-02-15T05:09:20;97585.34;;;1.87;100.00
7614;BME280;3848;42.016;23.098;2024-02-15T05:11:48;97591.19;;;1.86;100.00
7614;BME280;3848;42.016;23.098;2024-02-15T05:14:15;97595.28;;;1.83;100.00
7614;BME280;3848;42.016;23.098;2024-02-15T05:16:45;97606.34;;;1.89;100.00
7614;BME280;3848;42.016;23.098;2024-02-15T05:19:15;97604.63;;;1.88;100.00
7614;BME280;3848;42.016;23.098;2024-02-15T05:21:42;97601.25;;;1.87;100.00
7614;BME280;3848;42.016;23.098;2024-02-15T05:24:12;97609.66;;;1.88;100.00
7614;BME280;3848;42.016;23.098;2024-02-15T05:26:40;97611.22;;;1.86;100.00
7614;BME280;3848;42.016;23.098;2024-02-15T05:29:08;97606.09;;;1.82;100.00
7614;BME280;3848;42.016;23.098;2024-02-15T05:31:36;97496.88;;;1.11;100.00
7614;BME280;3848;42.016;23.098;2024-02-15T05:34:06;97609.31;;;1.78;100.00
7614;BME280;3848;42.016;23.098;2024-02-15T05:36:38;97603.44;;;1.78;100.00
7614;BME280;3848;42.016;23.098;2024-02-15T05:39:05;97614.44;;;1.81;100.00
7614;BME280;3848;42.016;23.098;2024-02-15T05:41:32;97608.59;;;1.82;100.00
7614;BME280;3848;42.016;23.098;2024-02-15T05:43:59;97611.22;;;1.86;100.00
7614;BME280;3848;42.016;23.098;2024-02-15T05:46:31;97599.19;;;1.75;100.00
7614;BME280;3848;42.016;23.098;2024-02-15T05:49:18;97611.97;;;1.83;100.00
7614;BME280;3848;42.016;23.098;2024-02-15T05:52:02;97600.00;;;1.74;100.00
7614;BME280;3848;42.016;23.098;2024-02-15T05:54:31;97579.34;;;1.56;100.00
7614;BME280;3848;42.016;23.098;2024-02-15T05:57:13;97609.22;;;1.75;100.00
7614;BME280;3848;42.016;23.098;2024-02-15T06:00:01;97632.84;;;1.83;100.00
7614;BME280;3848;42.016;23.098;2024-02-15T06:02:44;97641.19;;;1.82;100.00
7614;BME280;3848;42.016;23.098;2024-02-15T06:05:14;97626.91;;;1.80;100.00
7614;BME280;3848;42.016;23.098;2024-02-15T06:07:44;97636.91;;;1.80;100.00
7614;BME280;3848;42.016;23.098;2024-02-15T06:10:11;97642.78;;;1.80;100.00
7614;BME280;3848;42.016;23.098;2024-02-15T06:12:41;97646.09;;;1.79;100.00
7614;BME280;3848;42.016;23.098;2024-02-15T06:15:09;97648.69;;;1.82;100.00
7614;BME280;3848;42.016;23.098;2024-02-15T06:17:41;97653.75;;;1.84;100.00
7614;BME280;3848;42.016;23.098;2024-02-15T06:20:11;97650.44;;;1.85;100.00
7614;BME280;3848;42.016;23.098;2024-02-15T06:22:39;97638.78;;;1.86;100.00
7614;BME280;3848;42.016;23.098;2024-02-15T06:25:08;97648.97;;;1.90;100.00
7614;BME280;3848;42.016;23.098;2024-02-15T06:27:36;97639.56;;;1.84;100.00
7614;BME280;3848;42.016;23.098;2024-02-15T06:30:07;97649.94;;;1.94;100.00
7614;BME280;3848;42.016;23.098;2024-02-15T06:32:50;97655.94;;;1.99;100.00
7614;BME280;3848;42.016;23.098;2024-02-15T06:35:35;97652.69;;;2.01;100.00
7614;BME280;3848;42.016;23.098;2024-02-15T06:38:19;97654.59;;;2.08;100.00
7614;BME280;3848;42.016;23.098;2024-02-15T06:41:05;97655.56;;;2.12;100.00
7614;BME280;3848;42.016;23.098;2024-02-15T06:43:32;97655.66;;;2.15;100.00
7614;BME280;3848;42.016;23.098;2024-02-15T06:46:00;97655.94;;;2.24;100.00
7614;BME280;3848;42.016;23.098;2024-02-15T06:48:28;97657.75;;;2.28;100.00
7614;BME280;3848;42.016;23.098;2024-02-15T06:50:56;97657.97;;;2.34;100.00
7614;BME280;3848;42.016;23.098;2024-02-15T06:53:24;97655.66;;;2.40;100.00
7614;BME280;3848;42.016;23.098;2024-02-15T06:55:50;97654.19;;;2.47;100.00
7614;BME280;3848;42.016;23.098;2024-02-15T06:58:19;97649.38;;;2.53;100.00
7614;BME280;3848;42.016;23.098;2024-02-15T07:00:48;97642.88;;;2.60;100.00
7614;BME280;3848;42.016;23.098;2024-02-15T07:03:15;97644.97;;;2.73;100.00
7614;BME280;3848;42.016;23.098;2024-02-15T07:05:43;97629.88;;;2.71;100.00
7614;BME280;3848;42.016;23.098;2024-02-15T07:08:10;97646.22;;;2.87;100.00
7614;BME280;3848;42.016;23.098;2024-02-15T07:10:38;97654.00;;;2.95;100.00
7614;BME280;3848;42.016;23.098;2024-02-15T07:13:05;97646.78;;;3.05;100.00
7614;BME280;3848;42.016;23.098;2024-02-15T07:15:34;97641.84;;;3.09;100.00
7614;BME280;3848;42.016;23.098;2024-02-15T07:18:04;97639.59;;;3.16;100.00
7614;BME280;3848;42.016;23.098;2024-02-15T07:20:32;97634.72;;;3.22;100.00
7614;BME280;3848;42.016;23.098;2024-02-15T07:23:00;97632.41;;;3.30;100.00
7614;BME280;3848;42.016;23.098;2024-02-15T07:25:27;97649.78;;;3.52;100.00
7614;BME280;3848;42.016;23.098;2024-02-15T07:27:54;97646.69;;;3.61;100.00
7614;BME280;3848;42.016;23.098;2024-02-15T07:30:22;97629.28;;;3.67;100.00
7614;BME280;3848;42.016;23.098;2024-02-15T07:32:51;97635.47;;;3.80;100.00
7614;BME280;3848;42.016;23.098;2024-02-15T07:35:18;97634.75;;;3.84;100.00
7614;BME280;3848;42.016;23.098;2024-02-15T07:37:52;97617.22;;;3.87;100.00
7614;BME280;3848;42.016;23.098;2024-02-15T07:40:21;97630.22;;;4.04;100.00
7614;BME280;3848;42.016;23.098;2024-02-15T07:42:48;97625.63;;;4.20;100.00
7614;BME280;3848;42.016;23.098;2024-02-15T07:45:17;97607.38;;;4.29;100.00
7614;BME280;3848;42.016;23.098;2024-02-15T07:47:44;97626.72;;;4.66;100.00
7614;BME280;3848;42.016;23.098;2024-02-15T07:50:17;97632.25;;;4.87;100.00
7614;BME280;3848;42.016;23.098;2024-02-15T07:52:46;97603.09;;;4.99;100.00
7614;BME280;3848;42.016;23.098;2024-02-15T07:55:13;97618.91;;;5.31;100.00
7614;BME280;3848;42.016;23.098;2024-02-15T07:57:40;97604.13;;;5.47;100.00
7614;BME280;3848;42.016;23.098;2024-02-15T08:00:08;97614.63;;;5.70;100.00
7614;BME280;3848;42.016;23.098;2024-02-15T08:02:37;97607.38;;;5.87;100.00
7614;BME280;3848;42.016;23.098;2024-02-15T08:05:06;97615.28;;;6.04;100.00
7614;BME280;3848;42.016;23.098;2024-02-15T08:07:38;97605.34;;;6.13;100.00
7614;BME280;3848;42.016;23.098;2024-02-15T08:10:08;97602.84;;;6.15;100.00
7614;BME280;3848;42.016;23.098;2024-02-15T08:12:39;97600.59;;;6.31;100.00
7614;BME280;3848;42.016;23.098;2024-02-15T08:15:08;97598.13;;;6.34;100.00
7614;BME280;3848;42.016;23.098;2024-02-15T08:17:40;97608.47;;;6.50;100.00
7614;BME280;3848;42.016;23.098;2024-02-15T08:20:09;97605.28;;;6.63;100.00
7614;BME280;3848;42.016;23.098;2024-02-15T08:22:39;97600.44;;;6.75;100.00
7614;BME280;3848;42.016;23.098;2024-02-15T08:25:07;97594.69;;;6.87;100.00
7614;BME280;3848;42.016;23.098;2024-02-15T08:27:37;97594.88;;;6.99;100.00
7614;BME280;3848;42.016;23.098;2024-02-15T08:30:09;97603.38;;;7.07;99.88
7614;BME280;3848;42.016;23.098;2024-02-15T08:32:36;97597.66;;;7.20;100.00
7614;BME280;3848;42.016;23.098;2024-02-15T08:35:06;97590.97;;;7.24;99.24
7614;BME280;3848;42.016;23.098;2024-02-15T08:37:33;97609.69;;;7.37;98.66
7614;BME280;3848;42.016;23.098;2024-02-15T08:40:03;97605.53;;;7.43;95.88
7614;BME280;3848;42.016;23.098;2024-02-15T08:42:30;97604.75;;;7.49;96.60
7614;BME280;3848;42.016;23.098;2024-02-15T08:44:57;97595.53;;;7.51;94.66
7614;BME280;3848;42.016;23.098;2024-02-15T08:47:27;97596.47;;;7.60;95.30
7614;BME280;3848;42.016;23.098;2024-02-15T08:49:54;97589.06;;;7.77;97.28
7614;BME280;3848;42.016;23.098;2024-02-15T08:52:21;97594.16;;;7.80;93.62
7614;BME280;3848;42.016;23.098;2024-02-15T08:54:48;97575.66;;;7.86;93.19
7614;BME280;3848;42.016;23.098;2024-02-15T08:57:22;97579.91;;;7.90;92.17
7614;BME280;3848;42.016;23.098;2024-02-15T08:59:49;97583.41;;;8.01;92.09
7614;BME280;3848;42.016;23.098;2024-02-15T09:02:18;97568.25;;;8.07;90.24
7614;BME280;3848;42.016;23.098;2024-02-15T09:04:47;97566.69;;;8.20;91.85
7614;BME280;3848;42.016;23.098;2024-02-15T09:07:15;97565.84;;;8.19;88.88
7614;BME280;3848;42.016;23.098;2024-02-15T09:09:42;97563.34;;;8.25;89.40
7614;BME280;3848;42.016;23.098;2024-02-15T09:12:09;97569.31;;;8.32;87.43
7614;BME280;3848;42.016;23.098;2024-02-15T09:14:38;97571.16;;;8.50;86.13
7614;BME280;3848;42.016;23.098;2024-02-15T09:17:06;97563.63;;;8.56;84.30
7614;BME280;3848;42.016;23.098;2024-02-15T09:19:33;97573.00;;;8.71;82.37
7614;BME280;3848;42.016;23.098;2024-02-15T09:22:01;97567.97;;;8.77;83.32
7614;BME280;3848;42.016;23.098;2024-02-15T09:24:30;97558.75;;;8.94;82.52
7614;BME280;3848;42.016;23.098;2024-02-15T09:27:02;97554.63;;;9.11;81.22
7614;BME280;3848;42.016;23.098;2024-02-15T09:29:30;97547.91;;;9.20;78.88
7614;BME280;3848;42.016;23.098;2024-02-15T09:32:01;97542.88;;;9.30;79.07
7614;BME280;3848;42.016;23.098;2024-02-15T09:34:29;97547.16;;;9.40;75.37
7614;BME280;3848;42.016;23.098;2024-02-15T09:36:58;97541.28;;;9.58;77.39
7614;BME280;3848;42.016;23.098;2024-02-15T09:39:25;97543.06;;;10.05;77.45
7614;BME280;3848;42.016;23.098;2024-02-15T09:41:53;97532.81;;;10.87;73.27
7614;BME280;3848;42.016;23.098;2024-02-15T09:44:24;97490.81;;;11.83;67.07
7614;BME280;3848;42.016;23.098;2024-02-15T09:47:03;97523.78;;;12.95;62.50
7614;BME280;3848;42.016;23.098;2024-02-15T09:49:35;97519.63;;;13.58;58.72
7614;BME280;3848;42.016;23.098;2024-02-15T09:52:06;97510.31;;;13.53;56.64
7614;BME280;3848;42.016;23.098;2024-02-15T09:54:39;97515.56;;;13.42;55.71
7614;BME280;3848;42.016;23.098;2024-02-15T09:57:09;97507.41;;;13.79;55.56
7614;BME280;3848;42.016;23.098;2024-02-15T09:59:40;97458.94;;;14.26;56.70
7614;BME280;3848;42.016;23.098;2024-02-15T10:02:12;97484.28;;;14.86;53.60
7614;BME280;3848;42.016;23.098;2024-02-15T10:04:40;97505.19;;;15.08;52.44
7614;BME280;3848;42.016;23.098;2024-02-15T10:07:12;97474.69;;;14.96;53.65
7614;BME280;3848;42.016;23.098;2024-02-15T10:09:39;97490.63;;;14.67;53.20
7614;BME280;3848;42.016;23.098;2024-02-15T10:12:08;97440.53;;;14.55;51.44
7614;BME280;3848;42.016;23.098;2024-02-15T10:14:35;97476.06;;;15.14;52.50
7614;BME280;3848;42.016;23.098;2024-02-15T10:17:06;97468.03;;;15.31;51.28
7614;BME280;3848;42.016;23.098;2024-02-15T10:19:43;97483.16;;;15.41;50.20
7614;BME280;3848;42.016;23.098;2024-02-15T10:22:12;97402.16;;;14.55;50.92
7614;BME280;3848;42.016;23.098;2024-02-15T10:24:42;97451.97;;;14.82;51.30
7614;BME280;3848;42.016;23.098;2024-02-15T10:27:09;97286.41;;;14.04;53.11
7614;BME280;3848;42.016;23.098;2024-02-15T10:29:43;97468.00;;;15.32;51.87
7614;BME280;3848;42.016;23.098;2024-02-15T10:32:11;97429.44;;;15.38;51.34
7614;BME280;3848;42.016;23.098;2024-02-15T10:34:45;97453.63;;;16.01;50.95
7614;BME280;3848;42.016;23.098;2024-02-15T10:37:13;97455.66;;;15.88;49.85
7614;BME280;3848;42.016;23.098;2024-02-15T10:39:42;97438.59;;;16.21;50.23
7614;BME280;3848;42.016;23.098;2024-02-15T10:42:09;97434.44;;;16.50;49.60
7614;BME280;3848;42.016;23.098;2024-02-15T10:44:37;97432.66;;;16.19;48.96
7614;BME280;3848;42.016;23.098;2024-02-15T10:47:06;97384.50;;;16.30;48.99
7614;BME280;3848;42.016;23.098;2024-02-15T10:49:34;97422.91;;;16.33;47.74
7614;BME280;3848;42.016;23.098;2024-02-15T10:52:04;97429.94;;;16.58;48.53
7614;BME280;3848;42.016;23.098;2024-02-15T10:54:40;97418.16;;;16.51;47.42
7614;BME280;3848;42.016;23.098;2024-02-15T10:57:12;97403.97;;;16.70;48.18
7614;BME280;3848;42.016;23.098;2024-02-15T10:59:47;97419.38;;;16.99;46.48
7614;BME280;3848;42.016;23.098;2024-02-15T11:02:27;97355.94;;;16.42;47.29
7614;BME280;3848;42.016;23.098;2024-02-15T11:04:59;97407.47;;;16.97;47.10
7614;BME280;3848;42.016;23.098;2024-02-15T11:07:32;97365.78;;;16.89;47.04
7614;BME280;3848;42.016;23.098;2024-02-15T11:09:59;97404.47;;;17.12;47.09
7614;BME280;3848;42.016;23.098;2024-02-15T11:12:28;97379.59;;;16.54;46.33
7614;BME280;3848;42.016;23.098;2024-02-15T11:14:56;97389.94;;;16.82;48.88
7614;BME280;3848;42.016;23.098;2024-02-15T11:17:45;97401.50;;;17.24;48.29
7614;BME280;3848;42.016;23.098;2024-02-15T11:20:47;97390.34;;;16.97;46.75
7614;BME280;3848;42.016;23.098;2024-02-15T11:23:28;97347.22;;;16.50;48.17
7614;BME280;3848;42.016;23.098;2024-02-15T11:25:59;97379.81;;;16.44;48.52
7614;BME280;3848;42.016;23.098;2024-02-15T11:28:39;97280.28;;;15.97;48.11
7614;BME280;3848;42.016;23.098;2024-02-15T11:31:14;97381.41;;;17.11;48.04
7614;BME280;3848;42.016;23.098;2024-02-15T11:33:59;97385.81;;;17.05;47.74
7614;BME280;3848;42.016;23.098;2024-02-15T11:36:30;97380.69;;;17.33;46.54
7614;BME280;3848;42.016;23.098;2024-02-15T11:38:59;97374.38;;;17.72;46.68
7614;BME280;3848;42.016;23.098;2024-02-15T11:41:29;97371.66;;;17.76;45.91
7614;BME280;3848;42.016;23.098;2024-02-15T11:43:57;97369.84;;;17.52;46.08
7614;BME280;3848;42.016;23.098;2024-02-15T11:46:25;97355.53;;;17.17;46.01
7614;BME280;3848;42.016;23.098;2024-02-15T11:48:56;97362.09;;;17.25;47.41
7614;BME280;3848;42.016;23.098;2024-02-15T11:51:29;97361.34;;;17.50;47.51
7614;BME280;3848;42.016;23.098;2024-02-15T11:54:05;97360.84;;;17.38;47.15
7614;BME280;3848;42.016;23.098;2024-02-15T11:59:17;97341.09;;;17.13;46.05
7614;BME280;3848;42.016;23.098;2024-02-15T12:01:54;97350.41;;;17.43;47.10
7614;BME280;3848;42.016;23.098;2024-02-15T12:04:39;97352.13;;;17.43;46.45
7614;BME280;3848;42.016;23.098;2024-02-15T12:07:23;97344.75;;;17.60;46.45
7614;BME280;3848;42.016;23.098;2024-02-15T12:10:15;97339.25;;;17.44;45.48
7614;BME280;3848;42.016;23.098;2024-02-15T12:12:59;97340.53;;;17.31;47.46
7614;BME280;3848;42.016;23.098;2024-02-15T12:15:56;97335.47;;;17.28;46.49
7614;BME280;3848;42.016;23.098;2024-02-15T12:18:40;97331.78;;;17.36;46.47
7614;BME280;3848;42.016;23.098;2024-02-15T12:21:09;97333.56;;;17.08;46.81
7614;BME280;3848;42.016;23.098;2024-02-15T12:23:40;97335.78;;;17.45;46.39
7614;BME280;3848;42.016;23.098;2024-02-15T12:26:10;97331.84;;;17.61;46.65
7614;BME280;3848;42.016;23.098;2024-02-15T12:28:40;97328.16;;;17.16;46.21
7614;BME280;3848;42.016;23.098;2024-02-15T12:31:08;97328.53;;;17.03;47.44
7614;BME280;3848;42.016;23.098;2024-02-15T12:33:38;97319.59;;;16.89;46.20
7614;BME280;3848;42.016;23.098;2024-02-15T12:36:06;97326.22;;;16.65;46.86
7614;BME280;3848;42.016;23.098;2024-02-15T12:38:34;97273.38;;;15.99;47.86
7614;BME280;3848;42.016;23.098;2024-02-15T12:41:21;97310.81;;;16.06;48.10
7614;BME280;3848;42.016;23.098;2024-02-15T12:43:52;97305.44;;;16.15;48.74
7614;BME280;3848;42.016;23.098;2024-02-15T12:46:20;97317.84;;;15.98;49.52
7614;BME280;3848;42.016;23.098;2024-02-15T12:48:47;97315.75;;;15.79;49.70
7614;BME280;3848;42.016;23.098;2024-02-15T12:51:15;97214.53;;;14.97;50.08
7614;BME280;3848;42.016;23.098;2024-02-15T12:53:43;97290.19;;;15.44;49.62
7614;BME280;3848;42.016;23.098;2024-02-15T12:56:10;97298.97;;;15.34;49.31
7614;BME280;3848;42.016;23.098;2024-02-15T12:58:41;97314.13;;;15.06;49.71
7614;BME280;3848;42.016;23.098;2024-02-15T13:01:09;97325.13;;;14.71;50.72
7614;BME280;3848;42.016;23.098;2024-02-15T13:03:40;97326.84;;;14.27;52.24
7614;BME280;3848;42.016;23.098;2024-02-15T13:06:08;97332.53;;;13.98;53.04
7614;BME280;3848;42.016;23.098;2024-02-15T13:08:35;97309.16;;;13.71;53.91
7614;BME280;3848;42.016;23.098;2024-02-15T13:11:02;97323.09;;;13.54;54.12
7614;BME280;3848;42.016;23.098;2024-02-15T13:13:30;97307.91;;;13.45;55.41
7614;BME280;3848;42.016;23.098;2024-02-15T13:16:01;97317.38;;;13.39;55.80
7614;BME280;3848;42.016;23.098;2024-02-15T13:18:28;97317.47;;;13.32;55.24
7614;BME280;3848;42.016;23.098;2024-02-15T13:20:55;97302.16;;;13.32;55.46
7614;BME280;3848;42.016;23.098;2024-02-15T13:23:22;97300.44;;;13.32;56.10
7614;BME280;3848;42.016;23.098;2024-02-15T13:25:51;97286.28;;;13.13;56.12
7614;BME280;3848;42.016;23.098;2024-02-15T13:28:18;97305.75;;;13.20;56.34